createdAt,value
2018-02-10T00:00:38.613Z,74.07
2018-02-10T00:03:06.110Z,74.14
2018-02-10T00:05:33.666Z,73.64
2018-02-10T00:08:01.205Z,73.61
2018-02-10T00:10:28.783Z,73.85
2018-02-10T00:12:56.313Z,73.93
2018-02-10T00:15:23.840Z,74.00
2018-02-10T00:17:51.396Z,73.99
2018-02-10T00:20:18.921Z,74.20
2018-02-10T00:22:50.892Z,74.19
2018-02-10T00:25:18.459Z,74.23
2018-02-10T00:27:46.991Z,74.35
2018-02-10T00:30:14.756Z,74.04
2018-02-10T00:32:42.492Z,73.84
2018-02-10T00:35:10.096Z,73.91
2018-02-10T00:37:37.656Z,74.13
2018-02-10T00:40:05.216Z,74.64
2018-02-10T00:42:32.760Z,75.11
2018-02-10T00:45:00.308Z,75.16
2018-02-10T00:47:27.839Z,75.41
2018-02-10T00:49:55.551Z,75.42
2018-02-10T00:52:23.110Z,75.09
2018-02-10T00:54:50.663Z,75.23
2018-02-10T00:57:18.202Z,75.50
2018-02-10T00:59:45.719Z,75.85
2018-02-10T01:02:13.242Z,76.28
2018-02-10T01:04:40.786Z,76.34
2018-02-10T01:07:08.341Z,76.63
2018-02-10T01:09:35.869Z,76.31
2018-02-10T01:12:03.409Z,77.03
2018-02-10T01:14:30.933Z,76.98
2018-02-10T01:16:58.475Z,76.84
2018-02-10T01:19:26.181Z,76.68
2018-02-10T01:21:53.714Z,76.70
2018-02-10T01:24:21.253Z,76.75
2018-02-10T01:26:48.787Z,76.90
2018-02-10T01:29:16.324Z,76.79
2018-02-10T01:31:43.856Z,76.65
2018-02-10T01:34:11.389Z,76.90
2018-02-10T01:36:38.905Z,76.89
2018-02-10T01:39:06.492Z,76.64
2018-02-10T01:41:34.009Z,76.94
2018-02-10T01:44:01.553Z,77.12
2018-02-10T01:46:29.182Z,77.35
2018-02-10T01:48:56.778Z,77.31
2018-02-10T01:51:24.521Z,77.77
2018-02-10T01:53:52.090Z,78.00
2018-02-10T01:56:19.618Z,77.94
2018-02-10T01:58:47.280Z,77.83
2018-02-10T02:01:14.796Z,78.33
2018-02-10T02:03:42.317Z,77.73
2018-02-10T02:06:09.856Z,78.01
2018-02-10T02:08:37.413Z,77.99
2018-02-10T02:11:04.973Z,77.80
2018-02-10T02:13:32.540Z,78.15
2018-02-10T02:16:00.061Z,78.08
2018-02-10T02:18:27.597Z,78.29
2018-02-10T02:20:55.127Z,78.25
2018-02-10T02:23:22.650Z,78.44
2018-02-10T02:25:50.176Z,78.38
2018-02-10T02:28:17.716Z,78.64
2018-02-10T02:30:45.245Z,78.84
2018-02-10T02:33:12.777Z,78.90
2018-02-10T02:35:40.304Z,78.46
2018-02-10T02:38:07.829Z,78.98
2018-02-10T02:40:35.353Z,78.84
2018-02-10T02:43:02.983Z,78.75
2018-02-10T02:45:30.510Z,78.48
2018-02-10T02:47:58.035Z,78.85
2018-02-10T02:50:25.565Z,79.16
2018-02-10T02:52:53.105Z,79.22
2018-02-10T02:55:20.657Z,79.02
2018-02-10T02:57:48.203Z,79.03
2018-02-10T03:00:15.725Z,78.96
2018-02-10T03:02:43.255Z,78.86
2018-02-10T03:05:10.781Z,79.22
2018-02-10T03:07:38.306Z,79.00
2018-02-10T03:10:05.831Z,79.01
2018-02-10T03:12:33.361Z,79.25
2018-02-10T03:15:00.882Z,79.42
2018-02-10T03:17:28.410Z,79.59
2018-02-10T03:19:55.973Z,79.40
2018-02-10T03:22:23.501Z,79.44
2018-02-10T03:24:51.032Z,79.44
2018-02-10T03:27:18.562Z,79.68
2018-02-10T03:29:46.107Z,79.30
2018-02-10T03:32:13.628Z,78.92
2018-02-10T03:34:41.157Z,79.10
2018-02-10T03:37:08.683Z,78.96
2018-02-10T03:39:36.199Z,79.63
2018-02-10T03:42:03.738Z,79.16
2018-02-10T03:44:31.261Z,79.39
2018-02-10T03:46:58.836Z,79.32
2018-02-10T03:49:26.445Z,79.13
2018-02-10T03:51:53.978Z,79.28
2018-02-10T03:54:21.500Z,78.85
2018-02-10T03:56:49.057Z,79.10
2018-02-10T03:59:16.597Z,79.32
2018-02-10T04:01:44.148Z,79.19
2018-02-10T04:04:11.669Z,79.20
2018-02-10T04:06:39.194Z,79.49
2018-02-10T04:09:06.733Z,79.40
2018-02-10T04:11:34.260Z,79.58
2018-02-10T04:14:01.802Z,79.53
2018-02-10T04:16:29.625Z,79.67
2018-02-10T04:18:57.164Z,79.78
2018-02-10T04:21:24.688Z,79.69
2018-02-10T04:23:52.285Z,79.39
2018-02-10T04:26:19.804Z,79.26
2018-02-10T04:28:47.335Z,79.16
2018-02-10T04:31:14.860Z,79.15
2018-02-10T04:33:42.393Z,79.82
2018-02-10T04:36:09.917Z,79.64
2018-02-10T04:38:37.645Z,79.20
2018-02-10T04:41:05.227Z,79.13
2018-02-10T04:43:32.761Z,79.40
2018-02-10T04:46:00.329Z,79.53
2018-02-10T04:48:27.853Z,79.40
2018-02-10T04:50:55.441Z,79.61
2018-02-10T04:53:22.965Z,79.83
2018-02-10T04:55:50.495Z,79.96
2018-02-10T04:58:18.112Z,79.95
2018-02-10T05:00:45.686Z,80.13
2018-02-10T05:03:13.253Z,79.94
2018-02-10T05:05:40.798Z,79.78
2018-02-10T05:08:08.323Z,80.04
2018-02-10T05:10:35.849Z,79.98
2018-02-10T05:13:03.487Z,79.82
2018-02-10T05:15:31.044Z,79.84
2018-02-10T05:17:58.564Z,79.81
2018-02-10T05:20:26.114Z,79.71
2018-02-10T05:22:53.653Z,79.85
2018-02-10T05:25:21.210Z,80.13
2018-02-10T05:27:48.750Z,79.92
2018-02-10T05:30:16.327Z,79.76
2018-02-10T05:32:43.868Z,79.67
2018-02-10T05:35:11.393Z,79.58
2018-02-10T05:37:38.937Z,79.89
2018-02-10T05:40:06.542Z,79.74
2018-02-10T05:42:34.074Z,79.60
2018-02-10T05:45:01.588Z,79.55
2018-02-10T05:47:29.124Z,79.49
2018-02-10T05:49:56.664Z,79.46
2018-02-10T05:52:24.201Z,79.75
2018-02-10T05:54:51.753Z,79.88
2018-02-10T05:57:19.286Z,79.88
2018-02-10T05:59:46.828Z,80.07
2018-02-10T06:02:14.380Z,80.23
2018-02-10T06:04:41.909Z,80.07
2018-02-10T06:07:09.462Z,80.38
2018-02-10T06:09:37.005Z,80.28
2018-02-10T06:12:04.542Z,80.55
2018-02-10T06:14:32.076Z,80.53
2018-02-10T06:16:59.641Z,80.67
2018-02-10T06:19:27.178Z,80.32
2018-02-10T06:21:54.718Z,80.34
2018-02-10T06:24:22.302Z,80.11
2018-02-10T06:26:49.881Z,80.07
2018-02-10T06:29:17.411Z,80.05
2018-02-10T06:31:44.940Z,80.21
2018-02-10T06:34:12.474Z,80.09
2018-02-10T06:36:40.020Z,80.35
2018-02-10T06:39:07.553Z,80.37
2018-02-10T06:41:35.084Z,80.36
2018-02-10T06:44:02.637Z,80.27
2018-02-10T06:46:30.157Z,80.37
2018-02-10T06:48:57.672Z,80.15
2018-02-10T06:51:25.247Z,80.18
2018-02-10T06:53:52.781Z,80.32
2018-02-10T06:56:20.308Z,80.30
2018-02-10T06:58:47.850Z,80.67
2018-02-10T07:01:15.410Z,80.56
2018-02-10T07:03:42.940Z,80.68
2018-02-10T07:06:10.534Z,80.45
2018-02-10T07:08:38.094Z,79.95
2018-02-10T07:11:05.624Z,80.40
2018-02-10T07:13:33.151Z,80.25
2018-02-10T07:16:00.680Z,80.54
2018-02-10T07:18:28.202Z,80.39
2018-02-10T07:20:55.789Z,80.62
2018-02-10T07:23:23.316Z,80.85
2018-02-10T07:25:50.897Z,80.74
2018-02-10T07:28:18.483Z,80.64
2018-02-10T07:30:46.018Z,80.78
2018-02-10T07:33:13.535Z,80.77
2018-02-10T07:35:41.165Z,80.51
2018-02-10T07:38:08.696Z,80.65
2018-02-10T07:40:36.225Z,80.61
2018-02-10T07:43:03.777Z,80.37
2018-02-10T07:45:31.295Z,80.32
2018-02-10T07:47:58.825Z,80.49
2018-02-10T07:50:26.346Z,80.43
2018-02-10T07:52:53.977Z,80.11
2018-02-10T07:55:21.538Z,80.06
2018-02-10T07:57:49.195Z,79.85
2018-02-10T08:00:16.717Z,79.96
2018-02-10T08:02:44.278Z,79.78
2018-02-10T08:05:11.798Z,80.01
2018-02-10T08:07:39.329Z,80.00
2018-02-10T08:10:06.861Z,79.99
2018-02-10T08:12:34.385Z,80.01
2018-02-10T08:15:02.017Z,79.74
2018-02-10T08:17:29.552Z,79.78
2018-02-10T08:19:57.065Z,79.65
2018-02-10T08:22:24.589Z,79.62
2018-02-10T08:24:52.151Z,79.72
2018-02-10T08:27:19.683Z,79.61
2018-02-10T08:29:47.196Z,79.39
2018-02-10T08:32:14.726Z,79.70
2018-02-10T08:34:42.271Z,79.53
2018-02-10T08:37:09.808Z,79.63
2018-02-10T08:39:37.362Z,79.61
2018-02-10T08:42:04.923Z,79.33
2018-02-10T08:44:32.463Z,79.08
2018-02-10T08:47:00.000Z,79.35
2018-02-10T08:49:27.541Z,79.03
2018-02-10T08:51:55.056Z,79.10
2018-02-10T08:54:22.620Z,79.13
2018-02-10T08:56:50.220Z,79.35
2018-02-10T08:59:17.749Z,79.39
2018-02-10T09:01:45.278Z,78.64
2018-02-10T09:04:12.833Z,78.56
2018-02-10T09:06:40.347Z,78.33
2018-02-10T09:09:07.859Z,78.57
2018-02-10T09:11:35.485Z,78.58
2018-02-10T09:14:03.004Z,78.74
2018-02-10T09:16:30.553Z,78.68
2018-02-10T09:18:58.075Z,78.68
2018-02-10T09:21:25.595Z,78.58
2018-02-10T09:23:53.128Z,78.64
2018-02-10T09:26:20.674Z,78.88
2018-02-10T09:28:48.199Z,78.80
2018-02-10T09:31:15.725Z,79.53
2018-02-10T09:33:43.245Z,79.02
2018-02-10T09:36:10.852Z,78.44
2018-02-10T09:38:38.389Z,78.12
2018-02-10T09:41:05.929Z,78.19
2018-02-10T09:43:33.552Z,77.95
2018-02-10T09:46:01.113Z,77.52
2018-02-10T09:48:28.642Z,77.46
2018-02-10T09:50:56.199Z,77.18
2018-02-10T09:56:22.843Z,77.34
2018-02-10T09:58:50.356Z,76.85
2018-02-10T10:01:17.882Z,77.07
2018-02-10T10:03:45.407Z,76.87
2018-02-10T10:06:12.939Z,76.49
2018-02-10T10:08:40.465Z,76.59
2018-02-10T10:11:07.979Z,76.44
2018-02-10T10:13:35.505Z,76.01
2018-02-10T10:16:03.040Z,75.84
2018-02-10T10:18:30.555Z,75.84
2018-02-10T10:20:58.072Z,76.11
2018-02-10T10:23:25.615Z,75.84
2018-02-10T10:25:53.148Z,75.91
2018-02-10T10:28:20.671Z,75.72
2018-02-10T10:30:48.211Z,75.45
2018-02-10T10:33:15.725Z,75.27
2018-02-10T10:35:43.233Z,75.60
2018-02-10T10:38:10.752Z,75.08
2018-02-10T10:40:38.311Z,75.34
2018-02-10T10:43:05.846Z,75.04
2018-02-10T10:45:33.380Z,74.98
2018-02-10T10:48:00.910Z,74.93
2018-02-10T10:50:28.425Z,74.64
2018-02-10T10:52:55.958Z,74.67
2018-02-10T10:55:23.521Z,74.28
2018-02-10T10:57:51.119Z,74.16
2018-02-10T11:00:18.633Z,73.57
2018-02-10T11:02:46.169Z,73.69
2018-02-10T11:05:13.717Z,73.36
2018-02-10T11:07:41.281Z,72.66
2018-02-10T11:10:08.800Z,72.88
2018-02-10T11:12:36.332Z,72.06
2018-02-10T11:15:03.867Z,72.37
2018-02-10T11:17:31.406Z,71.99
2018-02-10T11:19:58.954Z,71.93
2018-02-10T11:22:26.504Z,71.00
2018-02-10T11:24:54.033Z,70.42
2018-02-10T11:27:21.597Z,71.31
2018-02-10T11:29:49.121Z,70.83
2018-02-10T11:32:16.652Z,70.63
2018-02-10T11:34:44.187Z,70.06
2018-02-10T11:37:11.702Z,69.13
2018-02-10T11:39:39.257Z,68.51
2018-02-10T11:42:06.775Z,68.79
2018-02-10T11:44:34.291Z,68.80
2018-02-10T11:47:01.804Z,68.02
2018-02-10T11:49:29.323Z,67.96
2018-02-10T11:51:56.857Z,65.55
2018-02-10T11:54:24.376Z,64.88
2018-02-10T11:56:52.085Z,64.78
2018-02-10T11:59:19.624Z,63.52
2018-02-10T12:01:47.161Z,63.00
2018-02-10T12:04:14.687Z,63.51
2018-02-10T12:06:42.198Z,62.11
2018-02-10T12:09:09.732Z,60.37
2018-02-10T12:11:37.968Z,60.99
2018-02-10T12:14:05.503Z,60.18
2018-02-10T12:16:33.031Z,61.95
2018-02-10T12:19:00.589Z,61.96
2018-02-10T12:21:28.121Z,61.66
2018-02-10T12:23:55.633Z,60.50
2018-02-10T12:26:23.197Z,61.21
2018-02-10T12:28:50.708Z,61.06
2018-02-10T12:31:18.232Z,62.45
2018-02-10T12:33:45.742Z,61.49
2018-02-10T12:36:13.306Z,61.08
2018-02-10T12:38:40.882Z,62.07
2018-02-10T12:41:08.584Z,62.09
2018-02-10T12:43:36.174Z,62.46
2018-02-10T12:46:03.676Z,62.82
2018-02-10T12:48:36.882Z,62.92
2018-02-10T12:51:04.397Z,62.33
2018-02-10T12:53:31.929Z,63.17
2018-02-10T12:55:59.646Z,64.05
2018-02-10T12:58:27.223Z,64.30
2018-02-10T13:00:54.745Z,63.98
2018-02-10T13:03:22.259Z,63.12
2018-02-10T13:05:49.774Z,63.73
2018-02-10T13:08:17.292Z,64.41
2018-02-10T13:10:44.840Z,63.70
2018-02-10T13:13:12.365Z,63.49
2018-02-10T13:15:39.895Z,63.70
2018-02-10T13:18:07.437Z,63.35
2018-02-10T13:20:34.952Z,63.20
2018-02-10T13:23:02.497Z,61.93
2018-02-10T13:25:30.026Z,61.58
2018-02-10T13:27:57.565Z,59.82
2018-02-10T13:30:25.096Z,61.04
2018-02-10T13:32:52.610Z,61.45
2018-02-10T13:35:20.144Z,63.07
2018-02-10T13:37:47.657Z,62.75
2018-02-10T13:40:15.190Z,63.86
2018-02-10T13:42:42.708Z,63.38
2018-02-10T13:45:10.216Z,63.64
2018-02-10T13:47:37.742Z,63.81
2018-02-10T13:50:05.271Z,64.95
2018-02-10T13:52:32.796Z,64.85
2018-02-10T13:55:00.305Z,65.12
2018-02-10T13:57:27.817Z,65.21
2018-02-10T13:59:55.336Z,65.25
2018-02-10T14:02:22.854Z,66.00
2018-02-10T14:04:50.385Z,65.60
2018-02-10T14:07:17.897Z,65.64
2018-02-10T14:09:45.408Z,65.37
2018-02-10T14:12:12.917Z,65.65
2018-02-10T14:14:40.432Z,65.94
2018-02-10T14:17:07.950Z,66.04
2018-02-10T14:19:35.467Z,66.26
2018-02-10T14:22:02.996Z,66.37
2018-02-10T14:24:30.512Z,66.51
2018-02-10T14:26:58.027Z,66.46
2018-02-10T14:29:25.542Z,66.15
2018-02-10T14:31:53.061Z,66.54
2018-02-10T14:34:20.597Z,66.89
2018-02-10T14:36:48.115Z,66.83
2018-02-10T14:39:15.644Z,66.81
2018-02-10T14:41:43.164Z,66.58
2018-02-10T14:44:10.696Z,66.79
2018-02-10T14:46:38.214Z,67.07
2018-02-10T14:49:05.751Z,67.51
2018-02-10T14:51:33.264Z,67.33
2018-02-10T14:54:00.795Z,67.66
2018-02-10T14:56:28.332Z,67.46
2018-02-10T14:58:55.861Z,67.82
2018-02-10T15:01:23.384Z,67.99
2018-02-10T15:03:50.900Z,68.51
2018-02-10T15:06:18.411Z,68.41
2018-02-10T15:08:45.924Z,68.37
2018-02-10T15:11:13.472Z,68.34
2018-02-10T15:13:40.987Z,68.62
2018-02-10T15:16:08.504Z,68.80
2018-02-10T15:18:36.034Z,69.25
2018-02-10T15:21:03.556Z,69.35
2018-02-10T15:23:31.085Z,69.37
2018-02-10T15:25:58.601Z,69.68
2018-02-10T15:28:26.136Z,69.60
2018-02-10T15:31:05.575Z,69.43
2018-02-10T15:33:45.019Z,69.84
2018-02-10T15:36:12.536Z,69.80
2018-02-10T15:38:40.065Z,70.04
2018-02-10T15:41:07.622Z,70.20
2018-02-10T15:43:35.156Z,70.09
2018-02-10T15:46:02.710Z,70.20
2018-02-10T15:48:30.232Z,70.29
2018-02-10T15:50:57.768Z,70.47
2018-02-10T15:53:25.292Z,70.38
2018-02-10T15:55:52.809Z,70.15
2018-02-10T15:58:20.336Z,70.59
2018-02-10T16:00:48.104Z,70.87
2018-02-10T16:03:15.629Z,70.79
2018-02-10T16:05:43.152Z,71.33
2018-02-10T16:08:10.738Z,71.24
2018-02-10T16:10:38.265Z,71.68
2018-02-10T16:13:05.801Z,72.00
2018-02-10T16:15:33.329Z,72.17
2018-02-10T16:18:00.849Z,72.20
2018-02-10T16:20:28.373Z,72.06
2018-02-10T16:22:55.887Z,72.24
2018-02-10T16:25:23.442Z,71.93
2018-02-10T16:27:50.988Z,72.06
2018-02-10T16:30:18.514Z,72.10
2018-02-10T16:32:46.046Z,72.14
2018-02-10T16:35:13.575Z,72.32
2018-02-10T16:37:41.096Z,71.96
2018-02-10T16:40:08.620Z,72.51
2018-02-10T16:42:36.140Z,72.14
2018-02-10T16:45:03.673Z,72.36
2018-02-10T16:47:31.196Z,72.36
2018-02-10T16:49:58.711Z,72.47
2018-02-10T16:52:26.244Z,72.45
2018-02-10T16:54:53.770Z,72.47
2018-02-10T16:57:21.292Z,72.26
2018-02-10T16:59:48.808Z,72.66
2018-02-10T17:02:16.345Z,72.42
2018-02-10T17:04:43.872Z,72.53
2018-02-10T17:07:11.404Z,72.82
2018-02-10T17:09:38.928Z,72.94
2018-02-10T17:12:06.443Z,72.80
2018-02-10T17:14:33.969Z,72.95
2018-02-10T17:17:01.510Z,72.93
2018-02-10T17:19:29.059Z,73.04
2018-02-10T17:21:56.586Z,73.13
2018-02-10T17:24:24.106Z,73.16
2018-02-10T17:26:51.645Z,73.04
2018-02-10T17:29:19.174Z,72.96
2018-02-10T17:31:46.709Z,73.24
2018-02-10T17:34:14.223Z,73.16
2018-02-10T17:36:41.740Z,73.27
2018-02-10T17:39:09.300Z,73.26
2018-02-10T17:41:36.788Z,73.01
2018-02-10T17:44:04.466Z,73.17
2018-02-10T17:46:31.989Z,73.61
2018-02-10T17:48:59.521Z,73.30
2018-02-10T17:51:27.067Z,73.32
2018-02-10T17:53:54.588Z,73.26
2018-02-10T17:56:22.115Z,73.23
2018-02-10T17:58:49.651Z,73.77
2018-02-10T18:01:17.171Z,73.41
2018-02-10T18:03:44.695Z,73.35
2018-02-10T18:06:12.234Z,73.78
2018-02-10T18:08:39.756Z,74.09
2018-02-10T18:11:07.269Z,74.20
2018-02-10T18:13:34.790Z,74.05
2018-02-10T18:16:02.321Z,74.21
2018-02-10T18:18:29.846Z,74.27
2018-02-10T18:20:57.403Z,74.41
2018-02-10T18:23:25.045Z,74.73
2018-02-10T18:25:52.696Z,74.63
2018-02-10T18:28:20.216Z,74.53
2018-02-10T18:30:47.763Z,74.91
2018-02-10T18:33:15.289Z,75.02
2018-02-10T18:35:42.800Z,75.08
2018-02-10T18:38:10.325Z,75.06
2018-02-10T18:40:37.952Z,74.88
2018-02-10T18:43:05.477Z,75.11
2018-02-10T18:45:32.992Z,75.16
2018-02-10T18:48:00.502Z,74.93
2018-02-10T18:50:28.052Z,75.29
2018-02-10T18:52:55.592Z,75.24
2018-02-10T18:55:23.135Z,75.18
2018-02-10T18:57:50.649Z,74.85
2018-02-10T19:00:18.172Z,75.16
2018-02-10T19:02:45.854Z,75.09
2018-02-10T19:05:13.395Z,75.13
2018-02-10T19:07:40.950Z,75.20
2018-02-10T19:10:08.582Z,74.96
2018-02-10T19:12:36.108Z,75.16
2018-02-10T19:15:03.637Z,75.07
2018-02-10T19:17:31.145Z,75.41
2018-02-10T19:19:58.657Z,75.27
2018-02-10T19:22:26.211Z,74.87
2018-02-10T19:24:54.306Z,75.11
2018-02-10T19:27:21.892Z,75.12
2018-02-10T19:29:49.431Z,75.04
2018-02-10T19:32:16.991Z,75.07
2018-02-10T19:34:44.517Z,75.23
2018-02-10T19:37:12.044Z,75.51
2018-02-10T19:39:39.560Z,75.78
2018-02-10T19:42:07.110Z,75.47
2018-02-10T19:44:34.652Z,75.76
2018-02-10T19:47:02.199Z,75.63
2018-02-10T19:49:29.748Z,75.54
2018-02-10T19:51:57.274Z,75.62
2018-02-10T19:54:24.817Z,75.80
2018-02-10T19:56:52.358Z,75.88
2018-02-10T19:59:19.989Z,75.93
2018-02-10T20:01:47.522Z,75.82
2018-02-10T20:04:15.049Z,75.81
2018-02-10T20:06:42.566Z,76.01
2018-02-10T20:09:10.084Z,75.77
2018-02-10T20:11:37.692Z,75.96
2018-02-10T20:14:05.244Z,75.97
2018-02-10T20:16:32.767Z,75.93
2018-02-10T20:19:00.286Z,76.12
2018-02-10T20:21:27.808Z,75.79
2018-02-10T20:23:55.333Z,76.26
2018-02-10T20:26:22.942Z,75.85
2018-02-10T20:28:50.502Z,76.17
2018-02-10T20:31:18.031Z,75.98
2018-02-10T20:33:45.642Z,76.16
2018-02-10T20:36:13.286Z,76.17
2018-02-10T20:38:40.845Z,76.29
2018-02-10T20:41:08.404Z,75.98
2018-02-10T20:43:35.923Z,75.78
2018-02-10T20:46:03.450Z,75.99
2018-02-10T20:48:30.971Z,75.98
2018-02-10T20:50:58.520Z,76.27
2018-02-10T20:53:26.165Z,76.26
2018-02-10T20:55:53.718Z,75.97
2018-02-10T20:58:21.240Z,76.01
2018-02-10T21:00:48.770Z,76.34
2018-02-10T21:03:16.343Z,76.35
2018-02-10T21:05:43.884Z,76.27
2018-02-10T21:08:11.489Z,76.26
2018-02-10T21:10:39.002Z,76.09
2018-02-10T21:13:06.525Z,76.67
2018-02-10T21:15:34.068Z,76.15
2018-02-10T21:18:01.687Z,76.41
2018-02-10T21:20:29.204Z,76.31
2018-02-10T21:22:56.824Z,76.70
2018-02-10T21:25:24.378Z,76.55
2018-02-10T21:27:51.943Z,76.77
2018-02-10T21:30:19.459Z,76.84
2018-02-10T21:32:47.004Z,76.86
2018-02-10T21:35:14.520Z,76.83
2018-02-10T21:37:42.082Z,76.79
2018-02-10T21:40:09.654Z,76.94
2018-02-10T21:42:37.189Z,76.85
2018-02-10T21:45:04.756Z,76.51
2018-02-10T21:47:32.349Z,76.92
2018-02-10T21:49:59.881Z,76.99
2018-02-10T21:52:27.396Z,76.87
2018-02-10T21:54:54.944Z,77.08
2018-02-10T21:57:22.500Z,77.45
2018-02-10T21:59:50.029Z,77.27
2018-02-10T22:02:17.556Z,77.75
2018-02-10T22:04:45.141Z,77.51
2018-02-10T22:07:12.680Z,77.28
2018-02-10T22:09:40.185Z,77.38
2018-02-10T22:12:07.701Z,77.59
2018-02-10T22:14:35.269Z,77.58
2018-02-10T22:17:02.784Z,77.60
2018-02-10T22:19:30.302Z,77.85
2018-02-10T22:21:57.841Z,77.89
2018-02-10T22:24:25.401Z,77.85
2018-02-10T22:26:52.960Z,77.80
2018-02-10T22:29:20.478Z,77.66
2018-02-10T22:31:48.049Z,77.95
2018-02-10T22:34:15.594Z,77.60
2018-02-10T22:36:43.121Z,78.20
2018-02-10T22:39:10.636Z,78.41
2018-02-10T22:41:38.162Z,78.16
2018-02-10T22:44:05.695Z,78.04
2018-02-10T22:46:33.249Z,78.27
2018-02-10T22:49:00.778Z,78.12
2018-02-10T22:51:28.397Z,77.85
2018-02-10T22:53:56.037Z,78.90
2018-02-10T22:56:23.581Z,78.87
2018-02-10T22:58:51.156Z,78.97
2018-02-10T23:01:18.707Z,79.10
2018-02-10T23:03:46.436Z,80.35
2018-02-10T23:06:13.985Z,80.11
2018-02-10T23:08:41.638Z,79.79
2018-02-10T23:11:09.162Z,80.09
2018-02-10T23:13:36.704Z,80.43
2018-02-10T23:16:04.216Z,80.79
2018-02-10T23:18:31.730Z,81.13
2018-02-10T23:20:59.269Z,81.71
2018-02-10T23:23:26.825Z,81.86
2018-02-10T23:25:54.525Z,81.10
2018-02-10T23:28:22.189Z,81.61
2018-02-10T23:30:49.712Z,80.99
2018-02-10T23:33:17.228Z,81.09
2018-02-10T23:35:44.742Z,80.80
2018-02-10T23:38:12.263Z,81.02
2018-02-10T23:40:39.801Z,81.56
2018-02-10T23:43:07.328Z,81.25
2018-02-10T23:45:34.853Z,81.51
2018-02-10T23:48:02.400Z,81.21
2018-02-10T23:50:29.916Z,80.90
2018-02-10T23:52:57.446Z,80.66
2018-02-10T23:55:25.044Z,80.59
2018-02-10T23:57:52.597Z,80.28
